TimeEST,TemperatureF,Dew PointF,Humidity,Sea Level PressureIn,VisibilityMPH,Wind Direction,Wind SpeedMPH,Gust SpeedMPH,PrecipitationIn,Events,Conditions,WindDirDegrees,DateUTC
12:53 AM,55.0,39.0,55,30.30,10.0,ENE,4.6,-,N/A,,Clear,60,2013-02-18 05:53:00
1:53 AM,55.0,39.0,55,30.28,10.0,ENE,3.5,-,N/A,,Clear,60,2013-02-18 06:53:00
2:53 AM,55.0,37.0,51,30.27,10.0,NE,3.5,-,N/A,,Clear,40,2013-02-18 07:53:00
3:53 AM,55.4,39.2,54,30.26,10.0,ENE,4.6,-,N/A,,Clear,60,2013-02-18 08:53:00
4:53 AM,55.0,41.0,59,30.26,10.0,NE,5.8,-,N/A,,Clear,50,2013-02-18 09:53:00
5:53 AM,55.9,44.1,64,30.27,10.0,NE,4.6,-,N/A,,Clear,50,2013-02-18 10:53:00
6:53 AM,57.2,46.4,67,30.27,10.0,NE,8.1,16.1,N/A,,Clear,50,2013-02-18 11:53:00
7:53 AM,59.0,48.0,67,30.28,10.0,NE,12.7,18.4,N/A,,Clear,40,2013-02-18 12:53:00
8:53 AM,60.8,48.2,63,30.28,10.0,NE,12.7,19.6,N/A,,Clear,40,2013-02-18 13:53:00
9:53 AM,62.1,50.0,65,30.30,10.0,NE,16.1,23.0,N/A,,Clear,50,2013-02-18 14:53:00
10:53 AM,64.0,51.1,63,30.30,10.0,NE,11.5,19.6,N/A,,Clear,50,2013-02-18 15:53:00
11:53 AM,66.9,53.1,61,30.28,10.0,ENE,10.4,16.1,N/A,,Clear,60,2013-02-18 16:53:00
12:53 PM,70.0,53.1,55,30.25,10.0,East,12.7,19.6,N/A,,Clear,90,2013-02-18 17:53:00
1:53 PM,70.0,52.0,53,30.22,10.0,East,17.3,23.0,N/A,,Clear,80,2013-02-18 18:53:00
2:53 PM,72.0,54.0,53,30.21,10.0,East,18.4,23.0,N/A,,Partly Cloudy,90,2013-02-18 19:53:00
3:53 PM,70.0,53.1,55,30.19,10.0,East,18.4,25.3,N/A,,Mostly Cloudy,90,2013-02-18 20:53:00
4:53 PM,70.0,53.1,55,30.20,10.0,East,17.3,24.2,N/A,,Overcast,90,2013-02-18 21:53:00
5:53 PM,70.0,54.0,57,30.19,10.0,ESE,16.1,24.2,N/A,,Scattered Clouds,110,2013-02-18 22:53:00
6:53 PM,69.1,55.0,61,30.19,10.0,East,12.7,20.7,N/A,,Scattered Clouds,90,2013-02-18 23:53:00
7:53 PM,69.1,55.9,63,30.19,10.0,East,16.1,23.0,N/A,,Scattered Clouds,90,2013-02-19 00:53:00
8:53 PM,69.1,55.9,63,30.20,10.0,East,12.7,-,N/A,,Scattered Clouds,100,2013-02-19 01:53:00
9:53 PM,69.1,55.0,61,30.20,10.0,East,13.8,-,N/A,,Mostly Cloudy,90,2013-02-19 02:53:00
10:53 PM,70.0,55.9,61,30.19,10.0,East,11.5,17.3,N/A,,Mostly Cloudy,100,2013-02-19 03:53:00
11:53 PM,71.1,55.9,59,30.18,10.0,ESE,10.4,-,N/A,,Overcast,110,2013-02-19 04:53:00